sensor_id;sensor_type;location;lat;lon;timestamp;P1;durP1;ratioP1;P2;durP2;ratioP2
71878;SDS011;59755;43.834;4.364;2022-11-20T00:01:18;4.28;;;1.10;;
71878;SDS011;59755;43.834;4.364;2022-11-20T00:03:45;3.85;;;0.88;;
71878;SDS011;59755;43.834;4.364;2022-11-20T00:06:12;4.57;;;1.05;;
71878;SDS011;59755;43.834;4.364;2022-11-20T00:08:40;3.28;;;1.00;;
71878;SDS011;59755;43.834;4.364;2022-11-20T00:11:07;1.98;;;0.80;;
71878;SDS011;59755;43.834;4.364;2022-11-20T00:13:34;4.15;;;1.08;;
71878;SDS011;59755;43.834;4.364;2022-11-20T00:16:01;4.05;;;1.27;;
71878;SDS011;59755;43.834;4.364;2022-11-20T00:18:28;5.05;;;1.10;;
71878;SDS011;59755;43.834;4.364;2022-11-20T00:20:54;5.78;;;1.30;;
71878;SDS011;59755;43.834;4.364;2022-11-20T00:23:29;3.65;;;1.20;;
71878;SDS011;59755;43.834;4.364;2022-11-20T00:25:56;5.22;;;1.40;;
71878;SDS011;59755;43.834;4.364;2022-11-20T00:28:22;3.60;;;1.10;;
71878;SDS011;59755;43.834;4.364;2022-11-20T00:30:47;4.93;;;1.00;;
71878;SDS011;59755;43.834;4.364;2022-11-20T00:33:13;4.50;;;1.10;;
71878;SDS011;59755;43.834;4.364;2022-11-20T00:35:39;2.92;;;1.08;;
71878;SDS011;59755;43.834;4.364;2022-11-20T00:38:04;3.08;;;1.05;;
71878;SDS011;59755;43.834;4.364;2022-11-20T00:40:30;2.92;;;1.00;;
71878;SDS011;59755;43.834;4.364;2022-11-20T00:42:56;2.05;;;0.80;;
71878;SDS011;59755;43.834;4.364;2022-11-20T00:45:21;3.55;;;1.10;;
71878;SDS011;59755;43.834;4.364;2022-11-20T00:47:47;4.25;;;1.10;;
71878;SDS011;59755;43.834;4.364;2022-11-20T00:50:13;3.95;;;1.10;;
71878;SDS011;59755;43.834;4.364;2022-11-20T00:52:39;2.97;;;1.00;;
71878;SDS011;59755;43.834;4.364;2022-11-20T00:55:05;4.18;;;1.40;;
71878;SDS011;59755;43.834;4.364;2022-11-20T00:57:31;4.30;;;1.13;;
71878;SDS011;59755;43.834;4.364;2022-11-20T00:59:56;5.97;;;1.40;;
71878;SDS011;59755;43.834;4.364;2022-11-20T01:02:22;3.63;;;1.27;;
71878;SDS011;59755;43.834;4.364;2022-11-20T01:04:48;4.20;;;1.30;;
71878;SDS011;59755;43.834;4.364;2022-11-20T01:07:14;4.35;;;1.40;;
71878;SDS011;59755;43.834;4.364;2022-11-20T01:09:39;3.97;;;1.20;;
71878;SDS011;59755;43.834;4.364;2022-11-20T01:12:05;5.35;;;1.70;;
71878;SDS011;59755;43.834;4.364;2022-11-20T01:14:31;3.30;;;1.00;;
71878;SDS011;59755;43.834;4.364;2022-11-20T01:16:57;3.28;;;1.08;;
71878;SDS011;59755;43.834;4.364;2022-11-20T01:19:22;3.55;;;1.20;;
71878;SDS011;59755;43.834;4.364;2022-11-20T01:21:52;3.10;;;1.00;;
71878;SDS011;59755;43.834;4.364;2022-11-20T01:24:19;2.80;;;1.00;;
71878;SDS011;59755;43.834;4.364;2022-11-20T01:26:47;3.33;;;1.02;;
71878;SDS011;59755;43.834;4.364;2022-11-20T01:29:15;3.72;;;1.17;;
71878;SDS011;59755;43.834;4.364;2022-11-20T01:31:43;3.17;;;0.90;;
71878;SDS011;59755;43.834;4.364;2022-11-20T01:34:10;3.88;;;1.02;;
71878;SDS011;59755;43.834;4.364;2022-11-20T01:36:38;3.53;;;0.93;;
71878;SDS011;59755;43.834;4.364;2022-11-20T01:39:05;3.65;;;0.90;;
71878;SDS011;59755;43.834;4.364;2022-11-20T01:41:33;3.25;;;0.85;;
71878;SDS011;59755;43.834;4.364;2022-11-20T01:44:19;3.45;;;0.80;;
71878;SDS011;59755;43.834;4.364;2022-11-20T01:50:10;3.03;;;0.90;;
71878;SDS011;59755;43.834;4.364;2022-11-20T01:52:22;2.67;;;1.00;;
71878;SDS011;59755;43.834;4.364;2022-11-20T01:54:55;1.85;;;0.80;;
71878;SDS011;59755;43.834;4.364;2022-11-20T01:57:26;2.42;;;0.90;;
71878;SDS011;59755;43.834;4.364;2022-11-20T01:59:59;4.15;;;1.08;;
71878;SDS011;59755;43.834;4.364;2022-11-20T02:02:36;4.60;;;1.00;;
71878;SDS011;59755;43.834;4.364;2022-11-20T02:05:07;3.22;;;0.90;;
71878;SDS011;59755;43.834;4.364;2022-11-20T02:07:43;3.80;;;1.00;;
71878;SDS011;59755;43.834;4.364;2022-11-20T02:10:10;3.83;;;1.00;;
71878;SDS011;59755;43.834;4.364;2022-11-20T02:12:36;4.60;;;1.30;;
71878;SDS011;59755;43.834;4.364;2022-11-20T02:15:20;4.32;;;1.00;;
71878;SDS011;59755;43.834;4.364;2022-11-20T02:17:46;2.03;;;0.75;;
71878;SDS011;59755;43.834;4.364;2022-11-20T02:20:13;4.18;;;0.95;;
71878;SDS011;59755;43.834;4.364;2022-11-20T02:22:42;3.20;;;0.90;;
71878;SDS011;59755;43.834;4.364;2022-11-20T02:25:19;4.22;;;1.10;;
71878;SDS011;59755;43.834;4.364;2022-11-20T02:27:46;2.80;;;1.00;;
71878;SDS011;59755;43.834;4.364;2022-11-20T02:30:12;2.80;;;0.95;;
71878;SDS011;59755;43.834;4.364;2022-11-20T02:32:38;1.80;;;0.82;;
71878;SDS011;59755;43.834;4.364;2022-11-20T02:35:08;3.47;;;0.90;;
71878;SDS011;59755;43.834;4.364;2022-11-20T02:37:36;4.53;;;1.10;;
71878;SDS011;59755;43.834;4.364;2022-11-20T02:40:04;3.95;;;0.98;;
71878;SDS011;59755;43.834;4.364;2022-11-20T02:42:30;3.65;;;1.00;;
71878;SDS011;59755;43.834;4.364;2022-11-20T02:44:55;3.40;;;1.00;;
71878;SDS011;59755;43.834;4.364;2022-11-20T02:47:21;2.60;;;0.75;;
71878;SDS011;59755;43.834;4.364;2022-11-20T02:49:47;3.88;;;0.95;;
71878;SDS011;59755;43.834;4.364;2022-11-20T02:52:12;3.13;;;0.90;;
71878;SDS011;59755;43.834;4.364;2022-11-20T02:54:38;2.72;;;0.80;;
71878;SDS011;59755;43.834;4.364;2022-11-20T02:57:04;3.35;;;1.00;;
71878;SDS011;59755;43.834;4.364;2022-11-20T02:59:29;3.63;;;0.82;;
71878;SDS011;59755;43.834;4.364;2022-11-20T03:01:55;2.53;;;0.80;;
71878;SDS011;59755;43.834;4.364;2022-11-20T03:04:21;2.85;;;0.90;;
71878;SDS011;59755;43.834;4.364;2022-11-20T03:06:46;2.63;;;0.80;;
71878;SDS011;59755;43.834;4.364;2022-11-20T03:09:12;2.35;;;0.80;;
71878;SDS011;59755;43.834;4.364;2022-11-20T03:11:38;4.35;;;1.13;;
71878;SDS011;59755;43.834;4.364;2022-11-20T03:14:04;3.67;;;1.20;;
71878;SDS011;59755;43.834;4.364;2022-11-20T03:16:30;4.07;;;1.40;;
71878;SDS011;59755;43.834;4.364;2022-11-20T03:18:56;3.08;;;1.08;;
71878;SDS011;59755;43.834;4.364;2022-11-20T03:21:22;3.38;;;1.10;;
71878;SDS011;59755;43.834;4.364;2022-11-20T03:23:48;3.47;;;0.88;;
71878;SDS011;59755;43.834;4.364;2022-11-20T03:28:51;3.53;;;1.00;;
71878;SDS011;59755;43.834;4.364;2022-11-20T03:31:19;3.35;;;0.98;;
71878;SDS011;59755;43.834;4.364;2022-11-20T03:33:49;2.42;;;0.82;;
71878;SDS011;59755;43.834;4.364;2022-11-20T03:36:16;2.92;;;1.10;;
71878;SDS011;59755;43.834;4.364;2022-11-20T03:38:43;2.90;;;0.95;;
71878;SDS011;59755;43.834;4.364;2022-11-20T03:41:19;2.85;;;0.90;;
71878;SDS011;59755;43.834;4.364;2022-11-20T03:44:09;2.83;;;0.90;;
71878;SDS011;59755;43.834;4.364;2022-11-20T03:46:33;3.83;;;1.00;;
71878;SDS011;59755;43.834;4.364;2022-11-20T03:48:59;4.10;;;0.90;;
71878;SDS011;59755;43.834;4.364;2022-11-20T03:51:29;3.33;;;1.00;;
71878;SDS011;59755;43.834;4.364;2022-11-20T03:53:57;3.50;;;1.00;;
71878;SDS011;59755;43.834;4.364;2022-11-20T03:56:26;3.03;;;0.90;;
71878;SDS011;59755;43.834;4.364;2022-11-20T03:58:53;5.00;;;1.13;;
71878;SDS011;59755;43.834;4.364;2022-11-20T04:01:20;3.55;;;1.10;;
71878;SDS011;59755;43.834;4.364;2022-11-20T04:03:54;4.17;;;1.20;;
71878;SDS011;59755;43.834;4.364;2022-11-20T04:06:21;6.32;;;1.27;;
71878;SDS011;59755;43.834;4.364;2022-11-20T04:08:54;5.00;;;1.27;;
71878;SDS011;59755;43.834;4.364;2022-11-20T04:11:22;3.63;;;1.10;;
71878;SDS011;59755;43.834;4.364;2022-11-20T04:13:48;3.72;;;1.17;;
71878;SDS011;59755;43.834;4.364;2022-11-20T04:16:16;4.78;;;1.02;;
71878;SDS011;59755;43.834;4.364;2022-11-20T04:18:42;2.95;;;1.10;;
71878;SDS011;59755;43.834;4.364;2022-11-20T04:21:08;4.88;;;1.25;;
71878;SDS011;59755;43.834;4.364;2022-11-20T04:23:35;4.47;;;1.17;;
71878;SDS011;59755;43.834;4.364;2022-11-20T04:26:08;8.88;;;1.30;;
71878;SDS011;59755;43.834;4.364;2022-11-20T04:28:36;3.75;;;0.98;;
71878;SDS011;59755;43.834;4.364;2022-11-20T04:31:03;4.97;;;1.27;;
71878;SDS011;59755;43.834;4.364;2022-11-20T04:33:30;4.47;;;1.33;;
71878;SDS011;59755;43.834;4.364;2022-11-20T04:35:59;4.13;;;1.20;;
71878;SDS011;59755;43.834;4.364;2022-11-20T04:38:29;3.30;;;1.10;;
71878;SDS011;59755;43.834;4.364;2022-11-20T04:40:56;3.38;;;1.00;;
71878;SDS011;59755;43.834;4.364;2022-11-20T04:43:23;3.83;;;1.20;;
71878;SDS011;59755;43.834;4.364;2022-11-20T04:45:55;3.17;;;1.00;;
71878;SDS011;59755;43.834;4.364;2022-11-20T04:48:23;3.42;;;1.00;;
71878;SDS011;59755;43.834;4.364;2022-11-20T04:50:50;3.53;;;1.23;;
71878;SDS011;59755;43.834;4.364;2022-11-20T04:53:16;3.45;;;1.05;;
71878;SDS011;59755;43.834;4.364;2022-11-20T04:55:42;3.95;;;1.10;;
71878;SDS011;59755;43.834;4.364;2022-11-20T04:58:08;3.53;;;1.00;;
71878;SDS011;59755;43.834;4.364;2022-11-20T05:00:35;4.88;;;1.40;;
71878;SDS011;59755;43.834;4.364;2022-11-20T05:03:00;3.30;;;1.00;;
71878;SDS011;59755;43.834;4.364;2022-11-20T05:05:26;3.80;;;1.10;;
71878;SDS011;59755;43.834;4.364;2022-11-20T05:07:52;4.38;;;1.10;;
71878;SDS011;59755;43.834;4.364;2022-11-20T05:10:18;5.53;;;1.40;;
71878;SDS011;59755;43.834;4.364;2022-11-20T05:12:43;2.22;;;0.80;;
71878;SDS011;59755;43.834;4.364;2022-11-20T05:15:09;3.17;;;1.00;;
71878;SDS011;59755;43.834;4.364;2022-11-20T05:17:35;3.47;;;1.10;;
71878;SDS011;59755;43.834;4.364;2022-11-20T05:20:01;3.75;;;1.00;;
71878;SDS011;59755;43.834;4.364;2022-11-20T05:22:26;6.38;;;1.40;;
71878;SDS011;59755;43.834;4.364;2022-11-20T05:24:52;3.25;;;1.00;;
71878;SDS011;59755;43.834;4.364;2022-11-20T05:27:18;3.67;;;1.10;;
71878;SDS011;59755;43.834;4.364;2022-11-20T05:29:43;4.32;;;1.13;;
71878;SDS011;59755;43.834;4.364;2022-11-20T05:32:09;4.95;;;1.25;;
71878;SDS011;59755;43.834;4.364;2022-11-20T05:34:35;3.05;;;0.95;;
71878;SDS011;59755;43.834;4.364;2022-11-20T05:37:01;4.10;;;1.10;;
71878;SDS011;59755;43.834;4.364;2022-11-20T05:39:27;3.97;;;1.10;;
71878;SDS011;59755;43.834;4.364;2022-11-20T05:41:53;5.45;;;1.35;;
71878;SDS011;59755;43.834;4.364;2022-11-20T05:44:38;3.45;;;1.00;;
71878;SDS011;59755;43.834;4.364;2022-11-20T05:47:04;3.78;;;1.00;;
71878;SDS011;59755;43.834;4.364;2022-11-20T05:49:31;4.60;;;1.08;;
71878;SDS011;59755;43.834;4.364;2022-11-20T05:51:57;4.47;;;1.00;;
71878;SDS011;59755;43.834;4.364;2022-11-20T05:54:23;3.10;;;0.90;;
71878;SDS011;59755;43.834;4.364;2022-11-20T05:56:48;4.50;;;1.20;;
71878;SDS011;59755;43.834;4.364;2022-11-20T05:59:14;4.90;;;1.25;;
71878;SDS011;59755;43.834;4.364;2022-11-20T06:01:40;4.70;;;1.23;;
71878;SDS011;59755;43.834;4.364;2022-11-20T06:04:06;3.90;;;1.20;;
71878;SDS011;59755;43.834;4.364;2022-11-20T06:06:32;2.95;;;0.90;;
71878;SDS011;59755;43.834;4.364;2022-11-20T06:08:57;4.80;;;1.17;;
71878;SDS011;59755;43.834;4.364;2022-11-20T06:11:24;3.85;;;1.20;;
71878;SDS011;59755;43.834;4.364;2022-11-20T06:13:50;3.55;;;1.10;;
71878;SDS011;59755;43.834;4.364;2022-11-20T06:16:17;4.03;;;1.38;;
71878;SDS011;59755;43.834;4.364;2022-11-20T06:18:45;2.75;;;1.00;;
71878;SDS011;59755;43.834;4.364;2022-11-20T06:21:12;4.05;;;1.10;;
71878;SDS011;59755;43.834;4.364;2022-11-20T06:23:40;2.67;;;0.95;;
71878;SDS011;59755;43.834;4.364;2022-11-20T06:26:07;3.97;;;1.25;;
71878;SDS011;59755;43.834;4.364;2022-11-20T06:28:34;4.15;;;1.20;;
71878;SDS011;59755;43.834;4.364;2022-11-20T06:31:00;2.80;;;0.98;;
71878;SDS011;59755;43.834;4.364;2022-11-20T06:33:27;3.97;;;1.00;;
71878;SDS011;59755;43.834;4.364;2022-11-20T06:35:56;3.65;;;0.90;;
71878;SDS011;59755;43.834;4.364;2022-11-20T06:40:51;5.00;;;1.42;;
71878;SDS011;59755;43.834;4.364;2022-11-20T06:43:17;3.08;;;0.90;;
71878;SDS011;59755;43.834;4.364;2022-11-20T06:45:43;3.22;;;1.00;;
71878;SDS011;59755;43.834;4.364;2022-11-20T06:48:09;4.88;;;1.10;;
71878;SDS011;59755;43.834;4.364;2022-11-20T06:50:37;4.90;;;1.38;;
71878;SDS011;59755;43.834;4.364;2022-11-20T06:53:04;4.63;;;1.15;;
71878;SDS011;59755;43.834;4.364;2022-11-20T06:55:30;3.63;;;1.15;;
71878;SDS011;59755;43.834;4.364;2022-11-20T06:57:56;4.80;;;1.55;;
71878;SDS011;59755;43.834;4.364;2022-11-20T07:00:22;3.60;;;1.10;;
71878;SDS011;59755;43.834;4.364;2022-11-20T07:02:48;4.05;;;1.10;;
71878;SDS011;59755;43.834;4.364;2022-11-20T07:05:15;3.67;;;1.00;;
71878;SDS011;59755;43.834;4.364;2022-11-20T07:07:41;4.68;;;0.98;;
71878;SDS011;59755;43.834;4.364;2022-11-20T07:10:07;5.25;;;1.40;;
71878;SDS011;59755;43.834;4.364;2022-11-20T07:12:33;4.70;;;1.17;;
71878;SDS011;59755;43.834;4.364;2022-11-20T07:14:59;3.00;;;1.10;;
71878;SDS011;59755;43.834;4.364;2022-11-20T07:17:24;4.43;;;1.02;;
71878;SDS011;59755;43.834;4.364;2022-11-20T07:19:50;3.80;;;1.10;;
71878;SDS011;59755;43.834;4.364;2022-11-20T07:22:16;3.03;;;0.98;;
71878;SDS011;59755;43.834;4.364;2022-11-20T07:24:42;4.35;;;1.10;;
71878;SDS011;59755;43.834;4.364;2022-11-20T07:27:07;5.57;;;1.00;;
71878;SDS011;59755;43.834;4.364;2022-11-20T07:29:33;6.90;;;1.23;;
71878;SDS011;59755;43.834;4.364;2022-11-20T07:31:59;3.75;;;1.27;;
71878;SDS011;59755;43.834;4.364;2022-11-20T07:34:25;4.68;;;1.20;;
71878;SDS011;59755;43.834;4.364;2022-11-20T07:36:50;6.80;;;1.50;;
71878;SDS011;59755;43.834;4.364;2022-11-20T07:39:16;4.15;;;1.20;;
71878;SDS011;59755;43.834;4.364;2022-11-20T07:41:42;5.50;;;1.30;;
71878;SDS011;59755;43.834;4.364;2022-11-20T07:44:07;4.78;;;1.30;;
71878;SDS011;59755;43.834;4.364;2022-11-20T07:46:33;3.42;;;1.17;;
71878;SDS011;59755;43.834;4.364;2022-11-20T07:48:59;3.97;;;1.15;;
71878;SDS011;59755;43.834;4.364;2022-11-20T07:51:24;5.32;;;1.45;;
71878;SDS011;59755;43.834;4.364;2022-11-20T07:53:53;4.93;;;1.30;;
71878;SDS011;59755;43.834;4.364;2022-11-20T07:56:19;3.55;;;1.13;;
71878;SDS011;59755;43.834;4.364;2022-11-20T07:58:45;3.90;;;1.10;;
71878;SDS011;59755;43.834;4.364;2022-11-20T08:01:11;5.68;;;1.20;;
71878;SDS011;59755;43.834;4.364;2022-11-20T08:03:36;2.50;;;0.98;;
71878;SDS011;59755;43.834;4.364;2022-11-20T08:06:02;3.65;;;1.15;;
71878;SDS011;59755;43.834;4.364;2022-11-20T08:08:29;6.75;;;1.40;;
71878;SDS011;59755;43.834;4.364;2022-11-20T08:10:58;4.35;;;1.13;;
71878;SDS011;59755;43.834;4.364;2022-11-20T08:14:02;4.00;;;1.20;;
71878;SDS011;59755;43.834;4.364;2022-11-20T08:16:36;3.05;;;1.00;;
71878;SDS011;59755;43.834;4.364;2022-11-20T08:19:03;4.38;;;1.23;;
71878;SDS011;59755;43.834;4.364;2022-11-20T08:21:29;4.72;;;1.20;;
71878;SDS011;59755;43.834;4.364;2022-11-20T08:23:56;6.00;;;1.30;;
71878;SDS011;59755;43.834;4.364;2022-11-20T08:26:22;3.78;;;1.00;;
71878;SDS011;59755;43.834;4.364;2022-11-20T08:28:49;4.10;;;1.10;;
71878;SDS011;59755;43.834;4.364;2022-11-20T08:31:19;5.85;;;1.30;;
71878;SDS011;59755;43.834;4.364;2022-11-20T08:33:45;3.45;;;1.13;;
71878;SDS011;59755;43.834;4.364;2022-11-20T08:36:11;4.20;;;1.38;;
71878;SDS011;59755;43.834;4.364;2022-11-20T08:38:36;3.50;;;1.10;;
71878;SDS011;59755;43.834;4.364;2022-11-20T08:41:03;4.82;;;1.23;;
71878;SDS011;59755;43.834;4.364;2022-11-20T08:43:48;3.70;;;1.20;;
71878;SDS011;59755;43.834;4.364;2022-11-20T08:46:14;4.78;;;1.17;;
71878;SDS011;59755;43.834;4.364;2022-11-20T08:48:40;4.13;;;1.50;;
71878;SDS011;59755;43.834;4.364;2022-11-20T08:51:05;3.97;;;1.13;;
71878;SDS011;59755;43.834;4.364;2022-11-20T08:53:31;3.47;;;1.13;;
71878;SDS011;59755;43.834;4.364;2022-11-20T08:55:57;5.05;;;1.20;;
71878;SDS011;59755;43.834;4.364;2022-11-20T08:58:23;4.10;;;1.10;;
71878;SDS011;59755;43.834;4.364;2022-11-20T09:00:49;4.35;;;1.33;;
71878;SDS011;59755;43.834;4.364;2022-11-20T09:03:15;3.85;;;1.20;;
71878;SDS011;59755;43.834;4.364;2022-11-20T09:05:41;3.90;;;1.10;;
71878;SDS011;59755;43.834;4.364;2022-11-20T09:08:07;3.45;;;1.17;;
71878;SDS011;59755;43.834;4.364;2022-11-20T09:10:33;5.18;;;1.25;;
71878;SDS011;59755;43.834;4.364;2022-11-20T09:12:59;4.40;;;1.20;;
71878;SDS011;59755;43.834;4.364;2022-11-20T09:15:26;5.25;;;1.35;;
71878;SDS011;59755;43.834;4.364;2022-11-20T09:17:56;2.58;;;0.98;;
71878;SDS011;59755;43.834;4.364;2022-11-20T09:20:23;4.47;;;1.13;;
71878;SDS011;59755;43.834;4.364;2022-11-20T09:22:50;3.92;;;1.00;;
71878;SDS011;59755;43.834;4.364;2022-11-20T09:25:16;4.63;;;1.15;;
71878;SDS011;59755;43.834;4.364;2022-11-20T09:27:42;3.78;;;1.02;;
71878;SDS011;59755;43.834;4.364;2022-11-20T09:30:10;4.78;;;1.27;;
71878;SDS011;59755;43.834;4.364;2022-11-20T09:32:38;4.47;;;1.55;;
71878;SDS011;59755;43.834;4.364;2022-11-20T09:35:04;4.05;;;1.00;;
71878;SDS011;59755;43.834;4.364;2022-11-20T09:37:30;4.93;;;1.15;;
71878;SDS011;59755;43.834;4.364;2022-11-20T09:39:56;4.85;;;1.30;;
71878;SDS011;59755;43.834;4.364;2022-11-20T09:55:38;4.10;;;1.27;;
71878;SDS011;59755;43.834;4.364;2022-11-20T09:58:12;4.00;;;1.17;;
71878;SDS011;59755;43.834;4.364;2022-11-20T10:00:45;4.28;;;1.10;;
71878;SDS011;59755;43.834;4.364;2022-11-20T10:03:20;3.25;;;1.00;;
71878;SDS011;59755;43.834;4.364;2022-11-20T10:05:54;2.88;;;0.90;;
71878;SDS011;59755;43.834;4.364;2022-11-20T10:14:09;5.65;;;1.30;;
71878;SDS011;59755;43.834;4.364;2022-11-20T10:25:52;5.13;;;1.30;;
71878;SDS011;59755;43.834;4.364;2022-11-20T10:30:23;4.03;;;1.20;;
71878;SDS011;59755;43.834;4.364;2022-11-20T10:35:37;4.60;;;1.40;;
71878;SDS011;59755;43.834;4.364;2022-11-20T10:38:09;4.78;;;1.35;;
71878;SDS011;59755;43.834;4.364;2022-11-20T10:40:38;5.03;;;1.15;;
71878;SDS011;59755;43.834;4.364;2022-11-20T10:48:32;2.80;;;0.75;;
71878;SDS011;59755;43.834;4.364;2022-11-20T10:51:07;2.78;;;1.10;;
71878;SDS011;59755;43.834;4.364;2022-11-20T10:59:11;3.85;;;1.30;;
71878;SDS011;59755;43.834;4.364;2022-11-20T11:01:41;3.88;;;1.00;;
71878;SDS011;59755;43.834;4.364;2022-11-20T11:04:53;2.72;;;1.00;;
71878;SDS011;59755;43.834;4.364;2022-11-20T11:06:54;3.25;;;1.08;;
71878;SDS011;59755;43.834;4.364;2022-11-20T11:09:25;2.90;;;1.00;;
71878;SDS011;59755;43.834;4.364;2022-11-20T11:11:55;3.28;;;0.90;;
71878;SDS011;59755;43.834;4.364;2022-11-20T11:14:22;2.65;;;1.00;;
71878;SDS011;59755;43.834;4.364;2022-11-20T11:16:56;4.75;;;1.00;;
71878;SDS011;59755;43.834;4.364;2022-11-20T11:19:22;4.15;;;1.13;;
71878;SDS011;59755;43.834;4.364;2022-11-20T11:21:50;2.83;;;1.05;;
71878;SDS011;59755;43.834;4.364;2022-11-20T11:24:24;3.47;;;1.00;;
71878;SDS011;59755;43.834;4.364;2022-11-20T11:26:57;2.95;;;0.88;;
71878;SDS011;59755;43.834;4.364;2022-11-20T11:29:24;4.05;;;1.10;;
71878;SDS011;59755;43.834;4.364;2022-11-20T11:32:04;3.97;;;0.90;;
71878;SDS011;59755;43.834;4.364;2022-11-20T11:34:30;3.40;;;0.98;;
71878;SDS011;59755;43.834;4.364;2022-11-20T11:36:58;4.43;;;1.00;;
71878;SDS011;59755;43.834;4.364;2022-11-20T11:39:25;4.45;;;1.15;;
71878;SDS011;59755;43.834;4.364;2022-11-20T11:41:51;3.30;;;1.10;;
71878;SDS011;59755;43.834;4.364;2022-11-20T11:47:25;3.70;;;1.00;;
71878;SDS011;59755;43.834;4.364;2022-11-20T11:52:44;2.70;;;1.00;;
71878;SDS011;59755;43.834;4.364;2022-11-20T11:55:15;3.13;;;0.90;;
71878;SDS011;59755;43.834;4.364;2022-11-20T11:57:46;4.43;;;0.90;;
71878;SDS011;59755;43.834;4.364;2022-11-20T12:00:16;2.90;;;0.93;;
71878;SDS011;59755;43.834;4.364;2022-11-20T12:05:21;3.40;;;0.90;;
71878;SDS011;59755;43.834;4.364;2022-11-20T12:07:53;3.08;;;0.90;;
71878;SDS011;59755;43.834;4.364;2022-11-20T12:10:21;2.78;;;0.90;;
71878;SDS011;59755;43.834;4.364;2022-11-20T12:12:50;2.95;;;0.88;;
71878;SDS011;59755;43.834;4.364;2022-11-20T12:15:24;3.10;;;0.90;;
71878;SDS011;59755;43.834;4.364;2022-11-20T12:17:51;2.20;;;0.80;;
71878;SDS011;59755;43.834;4.364;2022-11-20T12:20:17;4.22;;;0.98;;
71878;SDS011;59755;43.834;4.364;2022-11-20T12:25:38;2.65;;;0.80;;
71878;SDS011;59755;43.834;4.364;2022-11-20T12:28:13;3.13;;;0.90;;
71878;SDS011;59755;43.834;4.364;2022-11-20T12:31:08;4.35;;;1.00;;
71878;SDS011;59755;43.834;4.364;2022-11-20T12:33:33;3.53;;;0.95;;
71878;SDS011;59755;43.834;4.364;2022-11-20T12:50:06;3.30;;;1.00;;
71878;SDS011;59755;43.834;4.364;2022-11-20T12:56:02;3.03;;;0.90;;
71878;SDS011;59755;43.834;4.364;2022-11-20T13:00:31;3.25;;;0.90;;
71878;SDS011;59755;43.834;4.364;2022-11-20T13:08:24;4.38;;;1.40;;
71878;SDS011;59755;43.834;4.364;2022-11-20T13:11:01;2.92;;;0.82;;
71878;SDS011;59755;43.834;4.364;2022-11-20T13:16:07;4.13;;;1.25;;
71878;SDS011;59755;43.834;4.364;2022-11-20T13:18:36;3.42;;;1.00;;
71878;SDS011;59755;43.834;4.364;2022-11-20T13:21:17;5.15;;;1.13;;
71878;SDS011;59755;43.834;4.364;2022-11-20T13:23:44;3.55;;;0.98;;
71878;SDS011;59755;43.834;4.364;2022-11-20T13:26:20;5.32;;;1.30;;
71878;SDS011;59755;43.834;4.364;2022-11-20T13:28:48;3.75;;;1.08;;
71878;SDS011;59755;43.834;4.364;2022-11-20T13:31:32;3.63;;;0.95;;
71878;SDS011;59755;43.834;4.364;2022-11-20T13:33:59;5.25;;;1.40;;
71878;SDS011;59755;43.834;4.364;2022-11-20T13:36:27;2.97;;;0.80;;
71878;SDS011;59755;43.834;4.364;2022-11-20T13:38:54;3.30;;;1.00;;
71878;SDS011;59755;43.834;4.364;2022-11-20T13:43:53;4.47;;;1.20;;
71878;SDS011;59755;43.834;4.364;2022-11-20T13:46:19;4.78;;;1.42;;
71878;SDS011;59755;43.834;4.364;2022-11-20T13:48:49;3.25;;;1.00;;
71878;SDS011;59755;43.834;4.364;2022-11-20T14:01:37;4.47;;;1.20;;
71878;SDS011;59755;43.834;4.364;2022-11-20T14:04:06;3.55;;;1.10;;
71878;SDS011;59755;43.834;4.364;2022-11-20T14:06:42;4.50;;;1.23;;
71878;SDS011;59755;43.834;4.364;2022-11-20T14:09:13;2.72;;;0.93;;
71878;SDS011;59755;43.834;4.364;2022-11-20T14:11:45;2.92;;;1.10;;
71878;SDS011;59755;43.834;4.364;2022-11-20T14:14:19;3.70;;;1.10;;
71878;SDS011;59755;43.834;4.364;2022-11-20T14:16:46;3.47;;;1.20;;
71878;SDS011;59755;43.834;4.364;2022-11-20T14:19:30;4.28;;;1.40;;
71878;SDS011;59755;43.834;4.364;2022-11-20T14:24:42;4.32;;;1.35;;
71878;SDS011;59755;43.834;4.364;2022-11-20T14:27:12;3.92;;;1.23;;
71878;SDS011;59755;43.834;4.364;2022-11-20T14:29:39;6.57;;;1.50;;
71878;SDS011;59755;43.834;4.364;2022-11-20T14:32:08;4.65;;;1.45;;
71878;SDS011;59755;43.834;4.364;2022-11-20T14:34:37;4.35;;;1.30;;
71878;SDS011;59755;43.834;4.364;2022-11-20T14:37:04;6.50;;;1.63;;
71878;SDS011;59755;43.834;4.364;2022-11-20T14:39:34;4.68;;;1.38;;
71878;SDS011;59755;43.834;4.364;2022-11-20T14:42:01;4.70;;;1.50;;
71878;SDS011;59755;43.834;4.364;2022-11-20T14:44:28;3.97;;;1.40;;
71878;SDS011;59755;43.834;4.364;2022-11-20T14:46:55;4.50;;;1.38;;
71878;SDS011;59755;43.834;4.364;2022-11-20T14:49:21;4.40;;;1.27;;
71878;SDS011;59755;43.834;4.364;2022-11-20T14:51:57;5.22;;;1.25;;
71878;SDS011;59755;43.834;4.364;2022-11-20T14:54:24;5.05;;;1.75;;
71878;SDS011;59755;43.834;4.364;2022-11-20T14:56:58;5.55;;;1.80;;
71878;SDS011;59755;43.834;4.364;2022-11-20T14:59:29;5.35;;;1.95;;
71878;SDS011;59755;43.834;4.364;2022-11-20T15:02:00;5.15;;;1.60;;
71878;SDS011;59755;43.834;4.364;2022-11-20T15:04:27;4.82;;;1.90;;
71878;SDS011;59755;43.834;4.364;2022-11-20T15:06:54;4.82;;;2.00;;
71878;SDS011;59755;43.834;4.364;2022-11-20T15:09:20;4.28;;;1.70;;
71878;SDS011;59755;43.834;4.364;2022-11-20T15:11:59;4.90;;;1.60;;
71878;SDS011;59755;43.834;4.364;2022-11-20T15:14:26;4.60;;;1.60;;
71878;SDS011;59755;43.834;4.364;2022-11-20T15:16:53;4.60;;;1.58;;
71878;SDS011;59755;43.834;4.364;2022-11-20T15:19:25;4.70;;;1.38;;
71878;SDS011;59755;43.834;4.364;2022-11-20T15:21:52;5.65;;;1.58;;
71878;SDS011;59755;43.834;4.364;2022-11-20T15:24:18;6.72;;;2.10;;
71878;SDS011;59755;43.834;4.364;2022-11-20T15:26:44;5.53;;;2.10;;
71878;SDS011;59755;43.834;4.364;2022-11-20T15:29:12;5.28;;;1.80;;
71878;SDS011;59755;43.834;4.364;2022-11-20T15:31:38;5.07;;;1.70;;
71878;SDS011;59755;43.834;4.364;2022-11-20T15:34:10;6.10;;;2.20;;
71878;SDS011;59755;43.834;4.364;2022-11-20T15:36:37;6.00;;;2.20;;
71878;SDS011;59755;43.834;4.364;2022-11-20T15:39:03;5.57;;;2.20;;
71878;SDS011;59755;43.834;4.364;2022-11-20T15:41:32;5.70;;;2.25;;
71878;SDS011;59755;43.834;4.364;2022-11-20T15:43:58;5.32;;;1.88;;
71878;SDS011;59755;43.834;4.364;2022-11-20T15:46:28;6.05;;;2.10;;
71878;SDS011;59755;43.834;4.364;2022-11-20T15:48:55;5.88;;;2.00;;
71878;SDS011;59755;43.834;4.364;2022-11-20T15:51:32;5.43;;;2.10;;
71878;SDS011;59755;43.834;4.364;2022-11-20T15:53:59;5.97;;;1.80;;
71878;SDS011;59755;43.834;4.364;2022-11-20T15:56:27;5.35;;;2.08;;
71878;SDS011;59755;43.834;4.364;2022-11-20T15:58:53;5.30;;;2.08;;
71878;SDS011;59755;43.834;4.364;2022-11-20T16:01:21;6.05;;;2.08;;
71878;SDS011;59755;43.834;4.364;2022-11-20T16:03:47;5.40;;;1.55;;
71878;SDS011;59755;43.834;4.364;2022-11-20T16:06:13;4.88;;;1.98;;
71878;SDS011;59755;43.834;4.364;2022-11-20T16:08:41;6.82;;;2.40;;
71878;SDS011;59755;43.834;4.364;2022-11-20T16:11:09;6.53;;;1.88;;
71878;SDS011;59755;43.834;4.364;2022-11-20T16:13:35;5.60;;;1.88;;
71878;SDS011;59755;43.834;4.364;2022-11-20T16:16:24;5.95;;;2.20;;
71878;SDS011;59755;43.834;4.364;2022-11-20T16:18:53;6.55;;;2.20;;
71878;SDS011;59755;43.834;4.364;2022-11-20T16:21:19;5.10;;;2.10;;
71878;SDS011;59755;43.834;4.364;2022-11-20T16:23:45;5.22;;;2.03;;
71878;SDS011;59755;43.834;4.364;2022-11-20T16:26:13;5.43;;;2.25;;
71878;SDS011;59755;43.834;4.364;2022-11-20T16:28:39;5.78;;;2.10;;
71878;SDS011;59755;43.834;4.364;2022-11-20T16:31:09;6.35;;;2.28;;
71878;SDS011;59755;43.834;4.364;2022-11-20T16:33:35;6.60;;;2.55;;
71878;SDS011;59755;43.834;4.364;2022-11-20T16:36:11;6.45;;;2.20;;
71878;SDS011;59755;43.834;4.364;2022-11-20T16:38:38;6.35;;;2.28;;
71878;SDS011;59755;43.834;4.364;2022-11-20T16:41:04;6.32;;;2.22;;